DTTA/TUN METAR and TAF weather

Enter ICAO airport designator
Station Type Date Time Source
DTTA METAR 2020/09/20 14:00 UTC NOAA

DTTA 201400Z VRB04KT 9999 FEW023 SCT040 30/20 Q1015


Station Type Date Time Source
DTTA Decoded METAR 2020/09/20 14:00 UTC NOAA

Tunis-Carthage, Tunisia (DTTA) 36-50N 010-14E 4M
Sep 20, 2020 - 10:00 AM EDT / 2020.09.20 1400 UTC
Wind: Variable at 5 MPH (4 KT):0
Visibility: greater than 7 mile(s):0
Sky conditions: partly cloudy
Temperature: 86 F (30 C)
Dew Point: 68 F (20 C)
Relative Humidity: 55%
Pressure (altimeter): 29.97 in. Hg (1015 hPa)
ob: DTTA 201400Z VRB04KT 9999 FEW023 SCT040 30/20 Q1015
cycle: 14

Station Type Date Time Source
DTTA TAF 2020/09/20 12:45 UTC NOAA

TAF DTTA 201100Z 2012/2112 31006KT 9999 FEW023 PROB30
TEMPO 2012/2020 -TSRA FEW026CB PROB40
TEMPO 2104/2112 -TSRA FEW026CB

Example: see airport list